createdAt,value
2024-05-09T00:00:12.827Z,1028.59
2024-05-09T00:05:04.082Z,1028.65
2024-05-09T00:10:25.482Z,1028.65
2024-05-09T00:15:03.225Z,1028.66
2024-05-09T00:20:24.532Z,1028.64
2024-05-09T00:25:03.702Z,1028.69
2024-05-09T00:30:11.492Z,1028.73
2024-05-09T00:35:03.572Z,1028.69
2024-05-09T00:40:07.523Z,1028.68
2024-05-09T00:45:03.538Z,1028.68
2024-05-09T00:50:25.763Z,1028.63
2024-05-09T00:55:03.165Z,1028.68
2024-05-09T01:00:09.880Z,1028.61
2024-05-09T01:05:04.225Z,1028.72
2024-05-09T01:10:23.975Z,1028.69
2024-05-09T01:15:03.285Z,1028.81
2024-05-09T01:20:16.311Z,1028.67
2024-05-09T01:25:04.038Z,1028.63
2024-05-09T01:30:21.211Z,1028.62
2024-05-09T01:35:03.750Z,1028.62
2024-05-09T01:40:18.508Z,1028.58
2024-05-09T01:45:03.205Z,1028.58
2024-05-09T01:50:10.957Z,1028.54
2024-05-09T01:55:07.771Z,1028.62
2024-05-09T02:00:10.199Z,1028.68
2024-05-09T02:05:04.167Z,1028.58
2024-05-09T02:10:26.450Z,1028.58
2024-05-09T02:15:03.075Z,1028.62
2024-05-09T02:20:06.278Z,1028.6
2024-05-09T02:25:03.255Z,1028.66
2024-05-09T02:30:29.423Z,1028.65
2024-05-09T02:35:03.203Z,1028.59
2024-05-09T02:40:14.571Z,1028.53
2024-05-09T02:45:02.945Z,1028.54
2024-05-09T02:50:10.881Z,1028.52
2024-05-09T02:55:03.384Z,1028.46
2024-05-09T03:00:18.375Z,1028.49
2024-05-09T03:05:03.130Z,1028.43
2024-05-09T03:10:25.304Z,1028.48
2024-05-09T03:15:03.434Z,1028.6
2024-05-09T03:20:20.812Z,1028.51
2024-05-09T03:25:03.162Z,1028.51
2024-05-09T03:30:10.210Z,1028.47
2024-05-09T03:35:03.667Z,1028.43
2024-05-09T03:40:14.472Z,1028.35
2024-05-09T03:45:03.583Z,1028.42
2024-05-09T03:50:18.401Z,1028.41
2024-05-09T03:55:04.211Z,1028.49
2024-05-09T04:00:29.963Z,1028.33
2024-05-09T04:05:03.270Z,1028.43
2024-05-09T04:10:23.774Z,1028.48
2024-05-09T04:15:04.062Z,1028.46
2024-05-09T04:20:08.435Z,1028.51
2024-05-09T04:25:03.459Z,1028.44
2024-05-09T04:30:15.238Z,1028.49
2024-05-09T04:35:03.273Z,1028.57
2024-05-09T04:40:30.757Z,1028.69
2024-05-09T04:45:03.624Z,1028.71
2024-05-09T04:50:05.848Z,1028.65
2024-05-09T04:55:04.035Z,1028.77
2024-05-09T05:00:25.557Z,1028.81
2024-05-09T05:05:03.967Z,1028.85
2024-05-09T05:10:14.945Z,1028.87
2024-05-09T05:15:03.016Z,1028.83
2024-05-09T05:20:05.929Z,1028.92
2024-05-09T05:25:03.321Z,1028.8
2024-05-09T05:30:09.483Z,1028.93
2024-05-09T05:35:04.120Z,1028.92
2024-05-09T05:40:07.464Z,1028.79
2024-05-09T05:45:10.142Z,1028.92
2024-05-09T05:50:26.930Z,1028.89
2024-05-09T05:55:03.902Z,1028.92
2024-05-09T06:00:15.220Z,1028.9
2024-05-09T06:05:04.028Z,1028.96
2024-05-09T06:10:25.351Z,1028.9
2024-05-09T06:15:03.309Z,1028.98
2024-05-09T06:20:13.430Z,1028.86
2024-05-09T06:25:03.134Z,1028.87
2024-05-09T06:35:04.056Z,1028.87
2024-05-09T06:40:09.920Z,1028.89
2024-05-09T06:45:03.087Z,1028.9
2024-05-09T06:50:23.605Z,1028.94
2024-05-09T06:55:03.907Z,1028.86
2024-05-09T07:00:03.825Z,1028.86
2024-05-09T07:05:04.887Z,1028.86
2024-05-09T07:10:18.169Z,1028.87
2024-05-09T07:15:03.463Z,1028.78
2024-05-09T07:20:09.103Z,1028.85
2024-05-09T07:25:03.606Z,1028.85
2024-05-09T07:30:16.467Z,1028.74
2024-05-09T07:35:03.390Z,1028.82
2024-05-09T07:40:17.643Z,1028.88
2024-05-09T07:45:56.432Z,1028.79
2024-05-09T07:53:47.983Z,1028.7
2024-05-09T07:55:03.492Z,1028.66
2024-05-09T08:00:08.214Z,1028.73
2024-05-09T08:05:04.203Z,1028.66
2024-05-09T08:10:13.034Z,1028.74
2024-05-09T08:15:03.290Z,1028.65
2024-05-09T08:20:07.619Z,1028.61
2024-05-09T08:25:04.025Z,1028.63
2024-05-09T08:30:08.093Z,1028.56
2024-05-09T08:35:03.368Z,1028.57
2024-05-09T08:40:08.706Z,1028.49
2024-05-09T08:45:03.014Z,1028.58
2024-05-09T08:50:23.872Z,1028.57
2024-05-09T08:55:04.039Z,1028.56
2024-05-09T09:00:21.438Z,1028.5
2024-05-09T09:05:04.260Z,1028.46
2024-05-09T09:10:09.068Z,1028.46
2024-05-09T09:15:02.976Z,1028.52
2024-05-09T09:20:05.456Z,1028.45
2024-05-09T09:25:03.153Z,1028.42
2024-05-09T09:30:22.788Z,1028.36
2024-05-09T09:35:03.821Z,1028.32
2024-05-09T09:40:07.271Z,1028.28
2024-05-09T09:45:06.637Z,1028.29
2024-05-09T09:50:23.539Z,1028.31
2024-05-09T09:55:03.703Z,1028.39
2024-05-09T10:00:23.915Z,1028.25
2024-05-09T10:05:04.074Z,1028.2
2024-05-09T10:10:07.201Z,1028.15
2024-05-09T10:15:03.212Z,1028.07
2024-05-09T10:20:21.603Z,1028.06
2024-05-09T10:25:06.123Z,1027.99
2024-05-09T10:30:29.517Z,1027.94
2024-05-09T10:35:04.088Z,1027.99
2024-05-09T10:45:03.745Z,1027.9
2024-05-09T10:50:28.820Z,1027.86
2024-05-09T10:55:06.822Z,1027.78
2024-05-09T11:00:10.133Z,1027.71
2024-05-09T11:05:04.167Z,1027.62
2024-05-09T11:10:07.480Z,1027.68
2024-05-09T11:15:03.492Z,1027.57
2024-05-09T11:20:30.167Z,1027.64
2024-05-09T11:25:04.112Z,1027.52
2024-05-09T11:30:20.930Z,1027.53
2024-05-09T11:35:03.347Z,1027.43
2024-05-09T11:40:24.641Z,1027.43
2024-05-09T11:45:03.794Z,1027.38
2024-05-09T11:50:22.194Z,1027.35
2024-05-09T11:55:04.256Z,1027.26
2024-05-09T12:00:17.951Z,1027.24
2024-05-09T12:05:03.781Z,1027.17
2024-05-09T12:10:14.089Z,1027.13
2024-05-09T12:15:03.262Z,1027.1
2024-05-09T12:20:25.623Z,1027
2024-05-09T12:25:03.182Z,1027.08
2024-05-09T12:30:17.072Z,1026.9
2024-05-09T12:35:03.608Z,1026.84
2024-05-09T12:40:23.253Z,1026.85
2024-05-09T12:45:03.570Z,1026.75
2024-05-09T12:50:24.682Z,1026.62
2024-05-09T12:55:04.355Z,1026.66
2024-05-09T13:00:07.458Z,1026.59
2024-05-09T13:05:04.523Z,1026.47
2024-05-09T13:10:03.757Z,1026.44
2024-05-09T13:15:03.659Z,1026.45
2024-05-09T13:20:18.639Z,1026.35
2024-05-09T13:25:03.687Z,1026.15
2024-05-09T13:30:14.511Z,1026.09
2024-05-09T13:35:03.702Z,1026.03
2024-05-09T13:40:11.946Z,1026.24
2024-05-09T13:45:03.124Z,1026.15
2024-05-09T13:55:03.135Z,1026.03
2024-05-09T14:00:22.285Z,1025.98
2024-05-09T14:05:03.760Z,1025.88
2024-05-09T14:10:23.174Z,1025.73
2024-05-09T14:15:03.693Z,1025.82
2024-05-09T14:20:11.666Z,1025.79
2024-05-09T14:25:04.044Z,1025.76
2024-05-09T14:30:26.330Z,1025.58
2024-05-09T14:35:03.346Z,1025.61
2024-05-09T14:40:21.498Z,1025.48
2024-05-09T14:45:03.600Z,1025.48
2024-05-09T14:50:16.775Z,1025.41
2024-05-09T14:55:03.283Z,1025.35
2024-05-09T15:00:21.392Z,1025.42
2024-05-09T15:05:04.365Z,1025.25
2024-05-09T15:10:09.044Z,1025.22
2024-05-09T15:15:03.469Z,1025.27
2024-05-09T15:20:17.280Z,1025.18
2024-05-09T15:25:03.900Z,1025.19
2024-05-09T15:30:13.125Z,1025.16
2024-05-09T15:35:03.202Z,1025.15
2024-05-09T15:40:15.314Z,1025.16
2024-05-09T15:45:03.612Z,1025.1
2024-05-09T15:50:14.722Z,1024.98
2024-05-09T15:55:03.675Z,1025.08
2024-05-09T16:00:18.248Z,1024.99
2024-05-09T16:05:03.558Z,1025.01
2024-05-09T16:10:13.232Z,1024.93
2024-05-09T16:15:03.258Z,1024.95
2024-05-09T16:20:26.347Z,1025.02
2024-05-09T16:25:03.677Z,1024.94
2024-05-09T16:30:21.287Z,1025.03
2024-05-09T16:35:03.388Z,1025.03
2024-05-09T16:40:18.921Z,1025.06
2024-05-09T16:45:03.696Z,1024.96
2024-05-09T16:50:08.866Z,1024.97
2024-05-09T16:55:05.112Z,1024.96
2024-05-09T17:00:30.152Z,1025.01
2024-05-09T17:05:04.590Z,1024.95
2024-05-09T17:10:22.454Z,1024.99
2024-05-09T17:15:03.400Z,1025.03
2024-05-09T17:20:28.417Z,1025.03
2024-05-09T17:25:04.470Z,1024.96
2024-05-09T17:30:15.241Z,1025
2024-05-09T17:35:04.625Z,1024.98
2024-05-09T17:40:24.906Z,1024.94
2024-05-09T17:45:03.004Z,1025.03
2024-05-09T17:50:23.695Z,1025.03
2024-05-09T17:55:03.965Z,1025.08
2024-05-09T18:00:14.895Z,1025.12
2024-05-09T18:05:04.513Z,1025.02
2024-05-09T18:10:12.734Z,1025.01
2024-05-09T18:15:04.088Z,1025.01
2024-05-09T18:20:07.313Z,1025.06
2024-05-09T18:25:03.159Z,1025.12
2024-05-09T18:30:23.593Z,1025.21
2024-05-09T18:35:03.203Z,1025.1
2024-05-09T18:40:09.280Z,1025.21
2024-05-09T18:45:03.279Z,1025.21
2024-05-09T18:50:14.254Z,1025.23
2024-05-09T18:55:03.617Z,1025.39
2024-05-09T19:00:10.802Z,1025.35
2024-05-09T19:05:03.631Z,1025.42
2024-05-09T19:10:04.619Z,1025.53
2024-05-09T19:15:03.739Z,1025.54
2024-05-09T19:20:11.623Z,1025.63
2024-05-09T19:25:03.638Z,1025.67
2024-05-09T19:30:25.612Z,1025.66
2024-05-09T19:35:03.272Z,1025.66
2024-05-09T19:40:12.431Z,1025.61
2024-05-09T19:45:03.823Z,1025.66
2024-05-09T19:50:16.242Z,1025.65
2024-05-09T19:55:04.512Z,1025.69
2024-05-09T20:00:09.725Z,1025.66
2024-05-09T20:05:04.199Z,1025.76
2024-05-09T20:10:23.445Z,1025.82
2024-05-09T20:15:03.518Z,1025.74
2024-05-09T20:20:20.552Z,1025.77
2024-05-09T20:25:03.464Z,1025.72
2024-05-09T20:30:14.744Z,1025.69
2024-05-09T20:35:02.905Z,1025.73
2024-05-09T20:40:24.965Z,1025.87
2024-05-09T20:45:02.956Z,1025.71
2024-05-09T20:50:32.019Z,1025.76
2024-05-09T20:55:04.345Z,1025.74
2024-05-09T21:00:22.419Z,1025.61
2024-05-09T21:05:03.989Z,1025.74
2024-05-09T21:10:19.602Z,1025.74
2024-05-09T21:15:03.582Z,1025.67
2024-05-09T21:20:20.820Z,1025.75
2024-05-09T21:25:03.616Z,1025.77
2024-05-09T21:30:13.158Z,1025.76
2024-05-09T21:35:03.578Z,1025.7
2024-05-09T21:40:20.981Z,1025.67
2024-05-09T21:45:02.992Z,1025.74
2024-05-09T21:50:10.102Z,1025.74
2024-05-09T21:55:04.084Z,1025.66
2024-05-09T22:00:11.433Z,1025.7
2024-05-09T22:05:03.948Z,1025.67
2024-05-09T22:10:26.192Z,1025.7
2024-05-09T22:15:03.866Z,1025.75
2024-05-09T22:20:32.814Z,1025.78
2024-05-09T22:25:03.563Z,1025.78
2024-05-09T22:30:17.653Z,1025.76
2024-05-09T22:35:03.553Z,1025.77
2024-05-09T22:40:12.547Z,1025.79
2024-05-09T22:45:02.833Z,1025.71
2024-05-09T22:50:10.645Z,1025.73
2024-05-09T22:55:04.346Z,1025.66
2024-05-09T23:00:12.559Z,1025.67
2024-05-09T23:05:04.075Z,1025.73
2024-05-09T23:10:28.086Z,1025.74
2024-05-09T23:15:03.327Z,1025.73
2024-05-09T23:20:06.989Z,1025.67
2024-05-09T23:25:03.275Z,1025.67
2024-05-09T23:30:21.656Z,1025.7
2024-05-09T23:35:03.942Z,1025.68
2024-05-09T23:40:15.065Z,1025.57
2024-05-09T23:45:03.159Z,1025.61
2024-05-09T23:50:30.326Z,1025.5
2024-05-09T23:55:03.447Z,1025.58
